createdAt,value
2022-09-28T00:01:39.723Z,12.41
2022-09-28T00:05:02.423Z,12.25
2022-09-28T00:08:24.025Z,12.13
2022-09-28T00:11:46.138Z,12.01
2022-09-28T00:15:08.683Z,11.98
2022-09-28T00:18:30.499Z,12.01
2022-09-28T00:21:52.082Z,12.03
2022-09-28T00:25:13.717Z,12.07
2022-09-28T00:28:35.271Z,12.10
2022-09-28T00:32:04.334Z,12.13
2022-09-28T00:35:25.888Z,12.16
2022-09-28T00:38:47.445Z,12.18
2022-09-28T00:42:18.384Z,12.14
2022-09-28T00:45:40.046Z,12.10
2022-09-28T00:49:11.184Z,12.07
2022-09-28T00:52:50.939Z,12.01
2022-09-28T00:56:19.087Z,12.00
2022-09-28T00:59:43.272Z,12.00
2022-09-28T01:03:04.828Z,11.95
2022-09-28T01:06:31.033Z,11.84
2022-09-28T01:09:54.207Z,11.83
2022-09-28T01:13:17.648Z,11.86
2022-09-28T01:16:49.421Z,11.94
2022-09-28T01:20:40.956Z,11.97
2022-09-28T01:24:25.876Z,11.98
2022-09-28T01:28:12.117Z,12.04
2022-09-28T01:31:36.713Z,12.08
2022-09-28T01:35:28.026Z,12.05
2022-09-28T01:38:55.247Z,12.10
2022-09-28T01:42:29.537Z,12.17
2022-09-28T01:45:55.718Z,12.17
2022-09-28T01:49:17.362Z,12.14
2022-09-28T01:52:56.185Z,12.13
2022-09-28T01:56:25.016Z,12.10
2022-09-28T01:59:55.962Z,12.10
2022-09-28T02:03:29.995Z,12.10
2022-09-28T02:07:22.503Z,12.10
2022-09-28T02:10:49.865Z,12.10
2022-09-28T02:14:14.639Z,12.10
2022-09-28T02:17:38.653Z,12.20
2022-09-28T02:21:07.370Z,12.20
2022-09-28T02:24:31.623Z,12.18
2022-09-28T02:28:00.399Z,12.14
2022-09-28T02:31:22.031Z,12.16
2022-09-28T02:34:46.031Z,12.14
2022-09-28T02:38:10.299Z,12.14
2022-09-28T02:42:08.917Z,12.13
2022-09-28T02:46:17.960Z,12.08
2022-09-28T02:50:15.874Z,12.11
2022-09-28T02:54:08.785Z,12.16
2022-09-28T02:57:56.015Z,12.11
2022-09-28T03:01:27.209Z,12.14
2022-09-28T03:05:14.954Z,12.11
2022-09-28T03:08:44.988Z,11.89
2022-09-28T03:12:14.219Z,11.90
2022-09-28T03:15:39.020Z,11.95
2022-09-28T03:19:00.587Z,12.05
2022-09-28T03:22:22.097Z,11.94
2022-09-28T03:25:43.645Z,11.80
2022-09-28T03:29:08.092Z,11.87
2022-09-28T03:32:32.685Z,11.77
2022-09-28T03:35:54.365Z,11.56
2022-09-28T03:39:15.941Z,11.38
2022-09-28T03:42:37.908Z,11.32
2022-09-28T03:46:01.343Z,11.32
2022-09-28T03:49:22.918Z,11.31
2022-09-28T03:52:47.613Z,11.32
2022-09-28T03:56:12.338Z,11.43
2022-09-28T03:59:37.481Z,11.32
2022-09-28T04:02:58.982Z,11.39
2022-09-28T04:06:20.645Z,11.35
2022-09-28T04:09:42.174Z,11.51
2022-09-28T04:13:05.959Z,11.61
2022-09-28T04:16:27.827Z,11.45
2022-09-28T04:19:51.755Z,11.32
2022-09-28T04:23:16.054Z,11.32
2022-09-28T04:26:38.231Z,11.29
2022-09-28T04:30:01.977Z,11.29
2022-09-28T04:33:25.635Z,11.29
2022-09-28T04:36:52.449Z,11.34
2022-09-28T04:40:16.401Z,11.40
2022-09-28T04:43:42.954Z,11.52
2022-09-28T04:47:07.020Z,11.46
2022-09-28T04:50:28.552Z,11.42
2022-09-28T04:53:52.806Z,11.19
2022-09-28T04:57:14.385Z,11.18
2022-09-28T05:00:35.935Z,11.35
2022-09-28T05:03:57.447Z,11.52
2022-09-28T05:07:21.193Z,11.52
2022-09-28T05:10:43.120Z,11.66
2022-09-28T05:14:09.640Z,11.72
2022-09-28T05:17:33.403Z,11.77
2022-09-28T05:20:57.301Z,11.83
2022-09-28T05:24:18.843Z,11.86
2022-09-28T05:27:42.632Z,11.86
2022-09-28T05:31:07.325Z,11.86
2022-09-28T05:34:29.489Z,11.83
2022-09-28T05:37:54.919Z,11.84
2022-09-28T05:41:18.770Z,11.91
2022-09-28T05:44:40.289Z,12.04
2022-09-28T05:48:02.100Z,11.98
2022-09-28T05:51:25.402Z,11.98
2022-09-28T05:54:47.230Z,12.13
2022-09-28T05:58:08.834Z,12.20
2022-09-28T06:01:30.448Z,12.23
2022-09-28T06:04:52.041Z,12.34
2022-09-28T06:08:13.700Z,12.42
2022-09-28T06:11:35.230Z,12.51
2022-09-28T06:14:58.676Z,12.68
2022-09-28T06:18:20.468Z,12.69
2022-09-28T06:21:44.541Z,12.85
2022-09-28T06:25:06.866Z,12.95
2022-09-28T06:28:31.136Z,13.14
2022-09-28T06:31:52.690Z,13.34
2022-09-28T06:35:15.507Z,13.38
2022-09-28T06:38:39.399Z,13.61
2022-09-28T06:42:04.373Z,13.98
2022-09-28T06:45:32.024Z,13.90
2022-09-28T06:48:55.909Z,14.10
2022-09-28T06:52:17.381Z,14.16
2022-09-28T06:55:40.639Z,14.41
2022-09-28T06:59:02.130Z,13.87
2022-09-28T07:02:23.800Z,14.27
2022-09-28T07:05:54.029Z,14.48
2022-09-28T07:09:30.979Z,14.43
2022-09-28T07:12:56.865Z,14.29
2022-09-28T07:16:25.883Z,14.34
2022-09-28T07:19:52.777Z,14.45
2022-09-28T07:23:19.221Z,14.88
2022-09-28T07:26:41.297Z,15.36
2022-09-28T07:30:05.235Z,15.00
2022-09-28T07:33:32.573Z,14.84
2022-09-28T07:36:58.847Z,15.19
2022-09-28T07:40:38.927Z,15.74
2022-09-28T07:44:06.532Z,16.22
2022-09-28T07:47:33.938Z,16.22
2022-09-28T07:50:57.442Z,16.11
2022-09-28T07:54:18.994Z,15.95
2022-09-28T07:57:48.430Z,15.74
2022-09-28T08:01:11.905Z,15.60
2022-09-28T08:04:33.547Z,15.29
2022-09-28T08:07:57.785Z,15.75
2022-09-28T08:11:19.466Z,16.15
2022-09-28T08:14:43.426Z,16.63
2022-09-28T08:18:05.497Z,16.34
2022-09-28T08:21:58.970Z,16.32
2022-09-28T08:25:21.089Z,16.02
2022-09-28T08:28:44.956Z,16.06
2022-09-28T08:32:08.294Z,16.04
2022-09-28T08:35:29.838Z,16.36
2022-09-28T08:38:56.729Z,16.67
2022-09-28T08:42:48.567Z,16.71
2022-09-28T08:46:12.626Z,17.48
2022-09-28T08:49:42.155Z,17.29
2022-09-28T08:53:25.951Z,16.88
2022-09-28T08:56:49.635Z,16.57
2022-09-28T09:00:34.395Z,17.01
2022-09-28T09:03:58.941Z,16.98
2022-09-28T09:07:37.709Z,16.81
2022-09-28T09:11:25.600Z,17.03
2022-09-28T09:15:11.422Z,17.17
2022-09-28T09:18:53.657Z,17.22
2022-09-28T09:22:37.614Z,17.48
2022-09-28T09:26:14.197Z,17.25
2022-09-28T09:29:45.970Z,17.62
2022-09-28T09:33:45.853Z,17.28
2022-09-28T09:37:22.325Z,16.92
2022-09-28T09:40:43.916Z,16.91
2022-09-28T09:44:14.785Z,17.34
2022-09-28T09:47:41.457Z,17.77
2022-09-28T09:51:38.492Z,17.79
2022-09-28T09:55:08.596Z,18.18
2022-09-28T09:58:44.779Z,18.14
2022-09-28T10:02:23.818Z,18.21
2022-09-28T10:05:54.640Z,18.32
2022-09-28T10:09:30.780Z,18.52
2022-09-28T10:12:56.515Z,17.79
2022-09-28T10:16:19.216Z,17.59
2022-09-28T10:19:42.003Z,17.42
2022-09-28T10:23:06.340Z,17.21
2022-09-28T10:26:52.614Z,17.70
2022-09-28T10:30:19.434Z,18.62
2022-09-28T10:33:43.271Z,18.58
2022-09-28T10:37:10.379Z,19.28
2022-09-28T10:40:45.679Z,19.82
2022-09-28T10:44:16.305Z,18.79
2022-09-28T10:47:38.192Z,18.44
2022-09-28T10:51:07.695Z,18.22
2022-09-28T10:54:31.748Z,17.83
2022-09-28T10:57:57.814Z,17.82
2022-09-28T11:01:24.372Z,18.01
2022-09-28T11:04:53.154Z,18.01
2022-09-28T11:08:25.304Z,18.25
2022-09-28T11:11:49.465Z,18.14
2022-09-28T11:15:20.793Z,18.21
2022-09-28T11:18:42.315Z,18.93
2022-09-28T11:22:21.017Z,18.62
2022-09-28T11:25:55.390Z,18.51
2022-09-28T11:29:23.981Z,19.26
2022-09-28T11:32:45.699Z,19.28
2022-09-28T11:36:17.136Z,19.34
2022-09-28T11:39:51.864Z,19.99
2022-09-28T11:43:25.480Z,20.14
2022-09-28T11:47:25.414Z,19.87
2022-09-28T11:50:53.500Z,20.19
2022-09-28T11:54:23.647Z,19.74
2022-09-28T11:57:48.654Z,19.99
2022-09-28T12:01:23.916Z,19.79
2022-09-28T12:05:07.871Z,19.62
2022-09-28T12:08:40.026Z,19.55
2022-09-28T12:12:10.483Z,19.64
2022-09-28T12:19:50.853Z,19.30
2022-09-28T12:23:30.015Z,19.55
2022-09-28T12:27:23.190Z,19.54
2022-09-28T12:30:49.625Z,19.06
2022-09-28T12:34:11.630Z,18.72
2022-09-28T12:37:55.033Z,18.80
2022-09-28T12:41:31.979Z,18.59
2022-09-28T12:45:20.704Z,18.28
2022-09-28T12:48:42.303Z,18.38
2022-09-28T12:52:19.716Z,18.41
2022-09-28T12:56:16.754Z,18.42
2022-09-28T12:59:49.502Z,18.48
2022-09-28T13:03:45.833Z,18.34
2022-09-28T13:07:13.308Z,18.34
2022-09-28T13:10:53.625Z,18.32
2022-09-28T13:14:44.694Z,18.38
2022-09-28T13:18:18.607Z,18.34
2022-09-28T13:21:46.069Z,18.21
2022-09-28T13:25:16.990Z,18.53
2022-09-28T13:28:43.128Z,18.76
2022-09-28T13:32:08.179Z,18.69
2022-09-28T13:35:35.062Z,18.53
2022-09-28T13:38:59.477Z,18.49
2022-09-28T13:42:42.253Z,18.68
2022-09-28T13:46:13.019Z,18.90
2022-09-28T13:49:56.388Z,18.80
2022-09-28T13:53:35.501Z,18.97
2022-09-28T13:57:11.437Z,18.97
2022-09-28T14:00:47.501Z,19.02
2022-09-28T14:04:36.899Z,18.76
2022-09-28T14:08:11.362Z,18.56
2022-09-28T14:11:40.187Z,18.70
2022-09-28T14:15:06.989Z,18.88
2022-09-28T14:18:33.826Z,18.69
2022-09-28T14:22:33.997Z,18.73
2022-09-28T14:26:32.935Z,18.72
2022-09-28T14:30:11.665Z,18.85
2022-09-28T14:33:38.812Z,18.69
2022-09-28T14:37:22.322Z,18.45
2022-09-28T14:41:09.565Z,18.45
2022-09-28T14:45:06.374Z,18.62
2022-09-28T14:48:55.658Z,18.68
2022-09-28T14:52:38.133Z,18.51
2022-09-28T14:56:07.706Z,18.08
2022-09-28T14:59:36.001Z,18.00
2022-09-28T15:03:07.799Z,17.97
2022-09-28T15:06:46.211Z,18.01
2022-09-28T15:10:27.509Z,17.83
2022-09-28T15:13:53.421Z,17.82
2022-09-28T15:17:22.535Z,17.91
2022-09-28T15:20:49.212Z,18.13
2022-09-28T15:24:30.615Z,18.20
2022-09-28T15:27:54.979Z,18.34
2022-09-28T15:31:22.810Z,18.51
2022-09-28T15:34:55.855Z,18.80
2022-09-28T15:38:17.624Z,18.62
2022-09-28T15:41:39.884Z,18.04
2022-09-28T15:45:06.157Z,17.91
2022-09-28T15:48:37.393Z,17.53
2022-09-28T15:52:02.999Z,17.36
2022-09-28T15:55:52.892Z,17.25
2022-09-28T15:59:14.331Z,17.25
2022-09-28T16:02:36.123Z,17.31
2022-09-28T16:05:57.602Z,17.34
2022-09-28T16:10:04.837Z,17.57
2022-09-28T16:13:29.389Z,17.97
2022-09-28T16:16:55.368Z,18.30
2022-09-28T16:20:23.789Z,18.18
2022-09-28T16:23:51.543Z,18.27
2022-09-28T16:27:45.771Z,18.58
2022-09-28T16:31:13.650Z,18.35
2022-09-28T16:34:39.702Z,17.97
2022-09-28T16:38:19.597Z,17.63
2022-09-28T16:41:44.187Z,17.57
2022-09-28T16:45:07.750Z,17.32
2022-09-28T16:48:32.160Z,17.19
2022-09-28T16:51:59.572Z,17.15
2022-09-28T16:55:40.528Z,17.06
2022-09-28T16:59:05.890Z,17.00
2022-09-28T17:02:46.149Z,16.94
2022-09-28T17:06:10.613Z,16.90
2022-09-28T17:09:36.619Z,16.66
2022-09-28T17:12:59.133Z,16.85
2022-09-28T17:16:42.990Z,17.01
2022-09-28T17:20:20.342Z,16.97
2022-09-28T17:23:46.695Z,16.91
2022-09-28T17:27:15.837Z,17.11
2022-09-28T17:30:38.992Z,17.38
2022-09-28T17:34:00.742Z,17.35
2022-09-28T17:37:24.512Z,17.17
2022-09-28T17:40:48.576Z,17.06
2022-09-28T17:44:16.214Z,16.98
2022-09-28T17:47:38.200Z,16.69
2022-09-28T17:51:01.974Z,16.66
2022-09-28T17:54:25.805Z,16.61
2022-09-28T17:57:48.057Z,16.49
2022-09-28T18:01:12.617Z,16.39
2022-09-28T18:04:51.374Z,16.28
2022-09-28T18:08:17.296Z,16.04
2022-09-28T18:11:42.508Z,15.90
2022-09-28T18:15:04.306Z,15.81
2022-09-28T18:18:28.419Z,15.80
2022-09-28T18:21:50.264Z,15.58
2022-09-28T18:25:14.061Z,15.61
2022-09-28T18:28:37.876Z,15.51
2022-09-28T18:32:01.867Z,15.43
2022-09-28T18:35:23.765Z,15.40
2022-09-28T18:38:45.343Z,15.40
2022-09-28T18:42:10.392Z,15.37
2022-09-28T18:45:35.763Z,15.35
2022-09-28T18:48:57.785Z,15.35
2022-09-28T18:52:19.373Z,15.27
2022-09-28T18:55:45.554Z,15.13
2022-09-28T18:59:15.198Z,15.16
2022-09-28T19:02:39.348Z,15.15
2022-09-28T19:06:05.737Z,15.09
2022-09-28T19:09:30.289Z,14.93
2022-09-28T19:12:52.107Z,14.91
2022-09-28T19:16:20.669Z,14.93
2022-09-28T19:19:42.775Z,15.00
2022-09-28T19:23:04.335Z,14.99
2022-09-28T19:26:27.807Z,14.98
2022-09-28T19:29:51.750Z,15.00
2022-09-28T19:33:13.248Z,14.99
2022-09-28T19:36:35.253Z,14.98
2022-09-28T19:39:56.797Z,14.68
2022-09-28T19:43:21.408Z,14.38
2022-09-28T19:46:43.210Z,14.14
2022-09-28T19:50:05.232Z,14.24
2022-09-28T19:53:29.496Z,14.24
2022-09-28T19:56:52.716Z,14.33
2022-09-28T20:00:16.822Z,14.38
2022-09-28T20:03:38.913Z,14.50
2022-09-28T20:07:00.769Z,14.52
2022-09-28T20:10:24.732Z,14.52
2022-09-28T20:13:46.809Z,14.50
2022-09-28T20:17:11.716Z,14.52
2022-09-28T20:20:33.241Z,14.51
2022-09-28T20:23:56.309Z,14.48
2022-09-28T20:27:17.781Z,14.45
2022-09-28T20:30:39.731Z,14.50
2022-09-28T20:34:01.296Z,14.56
2022-09-28T20:37:26.556Z,14.26
2022-09-28T20:40:50.583Z,14.20
2022-09-28T20:44:14.748Z,14.34
2022-09-28T20:47:45.568Z,14.30
2022-09-28T20:51:11.369Z,14.36
2022-09-28T20:54:38.359Z,14.40
2022-09-28T20:58:08.157Z,14.33
2022-09-28T21:01:33.671Z,14.33
2022-09-28T21:04:58.613Z,14.36
2022-09-28T21:08:25.665Z,14.38
2022-09-28T21:11:49.679Z,14.33
2022-09-28T21:15:11.233Z,14.34
2022-09-28T21:18:32.766Z,14.41
2022-09-28T21:21:54.482Z,14.40
2022-09-28T21:25:16.040Z,14.40
2022-09-28T21:28:38.632Z,14.37
2022-09-28T21:32:00.261Z,14.43
2022-09-28T21:35:21.770Z,14.47
2022-09-28T21:38:43.947Z,14.27
2022-09-28T21:42:05.695Z,14.30
2022-09-28T21:45:29.446Z,14.17
2022-09-28T21:48:53.433Z,14.30
2022-09-28T21:52:15.005Z,14.36
2022-09-28T21:55:39.030Z,14.29
2022-09-28T21:59:01.360Z,14.37
2022-09-28T22:02:23.370Z,14.43
2022-09-28T22:05:50.391Z,14.51
2022-09-28T22:09:11.917Z,14.36
2022-09-28T22:12:33.506Z,14.36
2022-09-28T22:15:57.757Z,14.40
2022-09-28T22:19:22.287Z,14.47
2022-09-28T22:22:53.413Z,14.56
2022-09-28T22:26:21.656Z,14.72
2022-09-28T22:29:43.174Z,14.84
2022-09-28T22:33:07.732Z,14.87
2022-09-28T22:36:32.159Z,14.89
2022-09-28T22:39:56.198Z,14.95
2022-09-28T22:43:18.855Z,14.95
2022-09-28T22:46:43.511Z,14.95
2022-09-28T22:50:07.799Z,14.91
2022-09-28T22:53:32.847Z,14.88
2022-09-28T22:56:54.364Z,14.63
2022-09-28T23:00:15.993Z,14.74
2022-09-28T23:03:40.544Z,14.68
2022-09-28T23:07:02.108Z,14.70
2022-09-28T23:10:25.676Z,14.78
2022-09-28T23:13:54.398Z,14.74
2022-09-28T23:17:18.533Z,14.79
2022-09-28T23:20:40.062Z,14.56
2022-09-28T23:24:01.868Z,14.60
2022-09-28T23:27:25.914Z,14.60
2022-09-28T23:30:47.995Z,14.61
2022-09-28T23:34:13.408Z,14.61
2022-09-28T23:37:40.685Z,14.67
2022-09-28T23:41:02.308Z,14.74
2022-09-28T23:44:23.877Z,14.77
2022-09-28T23:47:45.692Z,14.77
2022-09-28T23:51:07.871Z,14.77
2022-09-28T23:54:34.148Z,14.78
2022-09-28T23:58:00.485Z,14.82
